Terminal Aerodrome Forecast
Issued by NWS

Home | Current Version | Previous Version | Text Only | Print | Product List | Glossary On
Versions: 1 2 3 4 5 6 7 8 9 10 11 12 13 14 15 16 17 18
000
FTUS43 KDVN 251100 RRA
TAFCID
TAF
KCID 251130Z 2512/2612 05011G19KT 2SM -RASN BR BKN008 OVC015
     FM251300 05015G23KT 1 1/2SM -SN BR OVC007
     FM251600 03017G26KT P6SM OVC015
     FM251900 01015G25KT P6SM BKN035
     FM260300 36006KT P6SM BKN250=

USA.gov is the U.S. government's official web portal to all federal, state and local government web resources and services.